sensor_id;sensor_type;location;lat;lon;timestamp;pressure;altitude;pressure_sealevel;temperature;humidity
70544;BME280;58097;48.364;-1.224;2023-05-14T00:00:23;100266.47;;;12.29;79.38
70544;BME280;58097;48.364;-1.224;2023-05-14T00:02:48;100264.75;;;12.28;79.67
70544;BME280;58097;48.364;-1.224;2023-05-14T00:05:13;100260.41;;;12.25;79.41
70544;BME280;58097;48.364;-1.224;2023-05-14T00:07:39;100258.66;;;12.24;79.85
70544;BME280;58097;48.364;-1.224;2023-05-14T00:10:05;100253.28;;;12.23;79.78
70544;BME280;58097;48.364;-1.224;2023-05-14T00:12:31;100248.06;;;12.20;79.61
70544;BME280;58097;48.364;-1.224;2023-05-14T00:14:56;100245.31;;;12.20;80.02
70544;BME280;58097;48.364;-1.224;2023-05-14T00:17:22;100247.38;;;12.18;79.66
70544;BME280;58097;48.364;-1.224;2023-05-14T00:19:47;100248.25;;;12.18;79.63
70544;BME280;58097;48.364;-1.224;2023-05-14T00:22:12;100250.31;;;12.16;79.79
70544;BME280;58097;48.364;-1.224;2023-05-14T00:24:38;100247.69;;;12.15;80.05
70544;BME280;58097;48.364;-1.224;2023-05-14T00:27:03;100242.78;;;12.08;80.69
70544;BME280;58097;48.364;-1.224;2023-05-14T00:29:29;100235.50;;;12.07;80.51
70544;BME280;58097;48.364;-1.224;2023-05-14T00:31:54;100238.59;;;12.04;80.70
70544;BME280;58097;48.364;-1.224;2023-05-14T00:34:20;100235.47;;;11.99;80.81
70544;BME280;58097;48.364;-1.224;2023-05-14T00:36:45;100230.25;;;11.96;81.15
70544;BME280;58097;48.364;-1.224;2023-05-14T00:39:11;100230.25;;;11.96;81.60
70544;BME280;58097;48.364;-1.224;2023-05-14T00:41:37;100232.84;;;11.98;81.06
70544;BME280;58097;48.364;-1.224;2023-05-14T00:44:03;100231.66;;;12.00;81.13
70544;BME280;58097;48.364;-1.224;2023-05-14T00:46:28;100233.41;;;12.01;81.62
70544;BME280;58097;48.364;-1.224;2023-05-14T00:48:54;100229.06;;;11.99;81.63
70544;BME280;58097;48.364;-1.224;2023-05-14T00:51:20;100229.75;;;12.01;81.26
70544;BME280;58097;48.364;-1.224;2023-05-14T00:53:46;100228.50;;;11.95;81.26
70544;BME280;58097;48.364;-1.224;2023-05-14T00:56:11;100228.34;;;11.97;81.80
70544;BME280;58097;48.364;-1.224;2023-05-14T00:58:37;100225.91;;;11.94;81.76
70544;BME280;58097;48.364;-1.224;2023-05-14T01:01:03;100223.47;;;11.91;82.33
70544;BME280;58097;48.364;-1.224;2023-05-14T01:03:29;100219.91;;;11.81;82.99
70544;BME280;58097;48.364;-1.224;2023-05-14T01:06:14;100209.00;;;11.79;82.48
70544;BME280;58097;48.364;-1.224;2023-05-14T01:11:28;100193.00;;;11.73;83.01
70544;BME280;58097;48.364;-1.224;2023-05-14T01:16:32;100195.44;;;11.76;82.70
70544;BME280;58097;48.364;-1.224;2023-05-14T01:18:58;100199.25;;;11.75;82.81
70544;BME280;58097;48.364;-1.224;2023-05-14T01:21:38;100190.06;;;11.74;82.73
70544;BME280;58097;48.364;-1.224;2023-05-14T01:24:06;100191.53;;;11.78;82.25
70544;BME280;58097;48.364;-1.224;2023-05-14T01:26:32;100186.09;;;11.77;82.64
70544;BME280;58097;48.364;-1.224;2023-05-14T01:29:11;100185.13;;;11.78;82.20
70544;BME280;58097;48.364;-1.224;2023-05-14T01:31:39;100191.34;;;11.80;82.36
70544;BME280;58097;48.364;-1.224;2023-05-14T01:34:07;100184.53;;;11.74;82.63
70544;BME280;58097;48.364;-1.224;2023-05-14T01:36:34;100201.84;;;11.76;82.75
70544;BME280;58097;48.364;-1.224;2023-05-14T01:39:00;100190.25;;;11.73;82.90
70544;BME280;58097;48.364;-1.224;2023-05-14T01:41:26;100197.50;;;11.74;83.02
70544;BME280;58097;48.364;-1.224;2023-05-14T01:43:52;100182.44;;;11.68;83.40
70544;BME280;58097;48.364;-1.224;2023-05-14T01:46:18;100190.19;;;11.65;83.22
70544;BME280;58097;48.364;-1.224;2023-05-14T01:48:43;100190.34;;;11.63;83.30
70544;BME280;58097;48.364;-1.224;2023-05-14T01:51:09;100184.66;;;11.65;83.40
70544;BME280;58097;48.364;-1.224;2023-05-14T01:53:34;100190.19;;;11.65;82.75
70544;BME280;58097;48.364;-1.224;2023-05-14T01:56:00;100182.91;;;11.64;82.72
70544;BME280;58097;48.364;-1.224;2023-05-14T01:58:25;100180.94;;;11.56;83.50
70544;BME280;58097;48.364;-1.224;2023-05-14T02:00:50;100184.50;;;11.48;83.72
70544;BME280;58097;48.364;-1.224;2023-05-14T02:03:16;100187.97;;;11.51;83.33
70544;BME280;58097;48.364;-1.224;2023-05-14T02:05:41;100177.06;;;11.49;83.55
70544;BME280;58097;48.364;-1.224;2023-05-14T02:08:06;100178.09;;;11.48;83.57
70544;BME280;58097;48.364;-1.224;2023-05-14T02:10:32;100181.53;;;11.42;83.95
70544;BME280;58097;48.364;-1.224;2023-05-14T02:12:57;100173.88;;;11.36;84.39
70544;BME280;58097;48.364;-1.224;2023-05-14T02:15:22;100169.19;;;11.36;83.88
70544;BME280;58097;48.364;-1.224;2023-05-14T02:17:48;100162.97;;;11.34;84.50
70544;BME280;58097;48.364;-1.224;2023-05-14T02:20:13;100173.00;;;11.35;83.87
70544;BME280;58097;48.364;-1.224;2023-05-14T02:22:38;100167.63;;;11.34;84.06
70544;BME280;58097;48.364;-1.224;2023-05-14T02:25:07;100168.34;;;11.36;84.43
70544;BME280;58097;48.364;-1.224;2023-05-14T02:27:32;100165.03;;;11.32;85.39
70544;BME280;58097;48.364;-1.224;2023-05-14T02:29:58;100174.19;;;11.33;85.42
70544;BME280;58097;48.364;-1.224;2023-05-14T02:32:26;100165.72;;;11.34;85.77
70544;BME280;58097;48.364;-1.224;2023-05-14T02:34:51;100168.81;;;11.31;86.73
70544;BME280;58097;48.364;-1.224;2023-05-14T02:37:16;100171.16;;;11.26;86.98
70544;BME280;58097;48.364;-1.224;2023-05-14T02:39:41;100173.66;;;11.29;87.04
70544;BME280;58097;48.364;-1.224;2023-05-14T02:42:07;100168.13;;;11.29;87.38
70544;BME280;58097;48.364;-1.224;2023-05-14T02:44:32;100164.59;;;11.27;87.62
70544;BME280;58097;48.364;-1.224;2023-05-14T02:46:58;100162.88;;;11.26;87.95
70544;BME280;58097;48.364;-1.224;2023-05-14T02:49:23;100161.44;;;11.22;88.05
70544;BME280;58097;48.364;-1.224;2023-05-14T02:51:48;100160.69;;;11.30;87.53
70544;BME280;58097;48.364;-1.224;2023-05-14T02:54:14;100159.41;;;11.24;88.89
70544;BME280;58097;48.364;-1.224;2023-05-14T02:56:40;100155.59;;;11.25;88.38
70544;BME280;58097;48.364;-1.224;2023-05-14T02:59:06;100158.38;;;11.25;88.33
70544;BME280;58097;48.364;-1.224;2023-05-14T03:01:31;100167.78;;;11.32;87.52
70544;BME280;58097;48.364;-1.224;2023-05-14T03:03:56;100163.66;;;11.36;87.04
70544;BME280;58097;48.364;-1.224;2023-05-14T03:06:22;100162.00;;;11.43;87.15
70544;BME280;58097;48.364;-1.224;2023-05-14T03:08:47;100164.38;;;11.38;88.36
70544;BME280;58097;48.364;-1.224;2023-05-14T03:11:12;100154.88;;;11.41;87.30
70544;BME280;58097;48.364;-1.224;2023-05-14T03:13:38;100150.22;;;11.41;88.33
70544;BME280;58097;48.364;-1.224;2023-05-14T03:16:03;100154.16;;;11.39;87.85
70544;BME280;58097;48.364;-1.224;2023-05-14T03:18:29;100156.25;;;11.37;89.21
70544;BME280;58097;48.364;-1.224;2023-05-14T03:20:55;100154.00;;;11.40;87.81
70544;BME280;58097;48.364;-1.224;2023-05-14T03:23:20;100158.13;;;11.36;88.74
70544;BME280;58097;48.364;-1.224;2023-05-14T03:25:45;100146.03;;;11.37;88.64
70544;BME280;58097;48.364;-1.224;2023-05-14T03:28:11;100158.13;;;11.36;88.24
70544;BME280;58097;48.364;-1.224;2023-05-14T03:30:36;100150.53;;;11.38;88.60
70544;BME280;58097;48.364;-1.224;2023-05-14T03:33:02;100154.66;;;11.34;89.12
70544;BME280;58097;48.364;-1.224;2023-05-14T03:35:27;100153.78;;;11.34;89.92
70544;BME280;58097;48.364;-1.224;2023-05-14T03:37:52;100152.22;;;11.31;90.22
70544;BME280;58097;48.364;-1.224;2023-05-14T03:40:18;100145.97;;;11.29;90.32
70544;BME280;58097;48.364;-1.224;2023-05-14T03:42:43;100149.44;;;11.31;89.40
70544;BME280;58097;48.364;-1.224;2023-05-14T03:45:09;100156.41;;;11.35;88.92
70544;BME280;58097;48.364;-1.224;2023-05-14T03:47:34;100151.34;;;11.31;89.87
70544;BME280;58097;48.364;-1.224;2023-05-14T03:50:00;100151.03;;;11.34;88.52
70544;BME280;58097;48.364;-1.224;2023-05-14T03:52:25;100159.88;;;11.37;88.54
70544;BME280;58097;48.364;-1.224;2023-05-14T03:54:50;100165.25;;;11.39;89.13
70544;BME280;58097;48.364;-1.224;2023-05-14T03:57:15;100161.06;;;11.35;89.69
70544;BME280;58097;48.364;-1.224;2023-05-14T03:59:41;100161.06;;;11.35;89.00
70544;BME280;58097;48.364;-1.224;2023-05-14T04:02:06;100150.88;;;11.35;89.61
70544;BME280;58097;48.364;-1.224;2023-05-14T04:04:32;100157.44;;;11.34;89.75
70544;BME280;58097;48.364;-1.224;2023-05-14T04:06:57;100165.72;;;11.34;89.46
70544;BME280;58097;48.364;-1.224;2023-05-14T04:09:23;100166.75;;;11.33;90.47
70544;BME280;58097;48.364;-1.224;2023-05-14T04:11:48;100168.16;;;11.37;88.87
70544;BME280;58097;48.364;-1.224;2023-05-14T04:14:13;100168.16;;;11.37;89.87
70544;BME280;58097;48.364;-1.224;2023-05-14T04:16:39;100163.66;;;11.36;89.21
70544;BME280;58097;48.364;-1.224;2023-05-14T04:19:04;100172.69;;;11.38;88.85
70544;BME280;58097;48.364;-1.224;2023-05-14T04:21:30;100171.81;;;11.38;89.95
70544;BME280;58097;48.364;-1.224;2023-05-14T04:23:56;100169.19;;;11.36;89.42
70544;BME280;58097;48.364;-1.224;2023-05-14T04:26:21;100170.63;;;11.40;89.14
70544;BME280;58097;48.364;-1.224;2023-05-14T04:28:47;100174.97;;;11.43;88.73
70544;BME280;58097;48.364;-1.224;2023-05-14T04:31:12;100171.88;;;11.46;88.78
70544;BME280;58097;48.364;-1.224;2023-05-14T04:33:37;100166.34;;;11.46;89.69
70544;BME280;58097;48.364;-1.224;2023-05-14T04:36:04;100169.25;;;11.44;89.36
70544;BME280;58097;48.364;-1.224;2023-05-14T04:38:29;100165.78;;;11.42;89.54
70544;BME280;58097;48.364;-1.224;2023-05-14T04:40:56;100164.59;;;11.45;89.47
70544;BME280;58097;48.364;-1.224;2023-05-14T04:43:21;100160.63;;;11.47;88.89
70544;BME280;58097;48.364;-1.224;2023-05-14T04:45:46;100160.31;;;11.51;88.77
70544;BME280;58097;48.364;-1.224;2023-05-14T04:48:12;100164.47;;;11.55;89.23
70544;BME280;58097;48.364;-1.224;2023-05-14T04:50:37;100161.25;;;11.59;88.71
70544;BME280;58097;48.364;-1.224;2023-05-14T04:53:03;100167.81;;;11.58;89.35
70544;BME280;58097;48.364;-1.224;2023-05-14T04:55:28;100167.25;;;11.55;90.12
70544;BME280;58097;48.364;-1.224;2023-05-14T04:57:54;100167.41;;;11.53;90.49
70544;BME280;58097;48.364;-1.224;2023-05-14T05:00:19;100174.53;;;11.56;89.90
70544;BME280;58097;48.364;-1.224;2023-05-14T05:02:46;100169.00;;;11.56;90.10
70544;BME280;58097;48.364;-1.224;2023-05-14T05:05:11;100170.88;;;11.55;90.23
70544;BME280;58097;48.364;-1.224;2023-05-14T05:07:36;100169.16;;;11.54;90.48
70544;BME280;58097;48.364;-1.224;2023-05-14T05:10:02;100168.00;;;11.57;89.94
70544;BME280;58097;48.364;-1.224;2023-05-14T05:12:28;100167.66;;;11.60;89.54
70544;BME280;58097;48.364;-1.224;2023-05-14T05:14:55;100171.69;;;11.65;89.37
70544;BME280;58097;48.364;-1.224;2023-05-14T05:17:21;100165.97;;;11.67;90.19
70544;BME280;58097;48.364;-1.224;2023-05-14T05:19:46;100165.81;;;11.68;89.44
70544;BME280;58097;48.364;-1.224;2023-05-14T05:22:12;100167.06;;;11.74;89.25
70544;BME280;58097;48.364;-1.224;2023-05-14T05:24:37;100162.06;;;11.77;89.35
70544;BME280;58097;48.364;-1.224;2023-05-14T05:27:03;100162.97;;;11.78;89.38
70544;BME280;58097;48.364;-1.224;2023-05-14T05:29:29;100162.63;;;11.81;89.49
70544;BME280;58097;48.364;-1.224;2023-05-14T05:31:55;100167.84;;;11.84;89.19
70544;BME280;58097;48.364;-1.224;2023-05-14T05:34:20;100169.28;;;11.88;89.06
70544;BME280;58097;48.364;-1.224;2023-05-14T05:36:45;100179.16;;;11.91;88.92
70544;BME280;58097;48.364;-1.224;2023-05-14T05:39:11;100176.22;;;11.92;89.14
70544;BME280;58097;48.364;-1.224;2023-05-14T05:41:38;100178.81;;;11.94;89.51
70544;BME280;58097;48.364;-1.224;2023-05-14T05:44:03;100179.53;;;11.96;89.51
70544;BME280;58097;48.364;-1.224;2023-05-14T05:46:29;100180.72;;;11.93;89.88
70544;BME280;58097;48.364;-1.224;2023-05-14T05:48:54;100178.28;;;11.90;89.75
70544;BME280;58097;48.364;-1.224;2023-05-14T05:51:19;100184.16;;;11.87;90.38
70544;BME280;58097;48.364;-1.224;2023-05-14T05:53:45;100181.22;;;11.89;89.72
70544;BME280;58097;48.364;-1.224;2023-05-14T05:56:10;100182.25;;;11.88;89.76
70544;BME280;58097;48.364;-1.224;2023-05-14T05:58:36;100185.56;;;11.91;90.08
70544;BME280;58097;48.364;-1.224;2023-05-14T06:01:01;100189.19;;;11.92;89.87
70544;BME280;58097;48.364;-1.224;2023-05-14T06:03:27;100185.94;;;11.96;89.52
70544;BME280;58097;48.364;-1.224;2023-05-14T06:05:52;100183.38;;;12.03;89.46
70544;BME280;58097;48.364;-1.224;2023-05-14T06:08:17;100190.47;;;12.05;89.88
70544;BME280;58097;48.364;-1.224;2023-05-14T06:10:43;100193.47;;;12.12;90.14
70544;BME280;58097;48.364;-1.224;2023-05-14T06:13:09;100187.63;;;12.15;89.40
70544;BME280;58097;48.364;-1.224;2023-05-14T06:15:34;100194.41;;;12.21;89.27
70544;BME280;58097;48.364;-1.224;2023-05-14T06:18:00;100196.50;;;12.27;89.33
70544;BME280;58097;48.364;-1.224;2023-05-14T06:20:25;100190.63;;;12.30;89.19
70544;BME280;58097;48.364;-1.224;2023-05-14T06:22:50;100191.31;;;12.32;90.33
70544;BME280;58097;48.364;-1.224;2023-05-14T06:25:16;100190.97;;;12.27;90.15
70544;BME280;58097;48.364;-1.224;2023-05-14T06:27:41;100199.63;;;12.32;89.68
70544;BME280;58097;48.364;-1.224;2023-05-14T06:30:07;100191.66;;;12.29;90.42
70544;BME280;58097;48.364;-1.224;2023-05-14T06:32:32;100194.44;;;12.29;90.87
70544;BME280;58097;48.364;-1.224;2023-05-14T06:34:58;100197.72;;;12.32;90.08
70544;BME280;58097;48.364;-1.224;2023-05-14T06:37:23;100190.50;;;12.39;90.07
70544;BME280;58097;48.364;-1.224;2023-05-14T06:39:48;100200.78;;;12.47;89.50
70544;BME280;58097;48.364;-1.224;2023-05-14T06:42:15;100199.06;;;12.54;89.52
70544;BME280;58097;48.364;-1.224;2023-05-14T06:44:41;100194.56;;;12.61;89.37
70544;BME280;58097;48.364;-1.224;2023-05-14T06:47:06;100193.91;;;12.67;90.43
70544;BME280;58097;48.364;-1.224;2023-05-14T06:49:33;100194.41;;;12.71;89.21
70544;BME280;58097;48.364;-1.224;2023-05-14T06:51:59;100200.53;;;12.75;89.57
70544;BME280;58097;48.364;-1.224;2023-05-14T06:54:24;100205.56;;;12.79;89.44
70544;BME280;58097;48.364;-1.224;2023-05-14T06:56:49;100204.53;;;12.80;89.33
70544;BME280;58097;48.364;-1.224;2023-05-14T06:59:15;100200.72;;;12.81;89.93
70544;BME280;58097;48.364;-1.224;2023-05-14T07:01:40;100208.53;;;12.86;89.30
70544;BME280;58097;48.364;-1.224;2023-05-14T07:04:06;100198.47;;;12.93;89.34
70544;BME280;58097;48.364;-1.224;2023-05-14T07:06:31;100201.31;;;13.01;89.97
70544;BME280;58097;48.364;-1.224;2023-05-14T07:08:56;100197.31;;;13.12;89.76
70544;BME280;58097;48.364;-1.224;2023-05-14T07:11:22;100203.09;;;13.18;89.42
70544;BME280;58097;48.364;-1.224;2023-05-14T07:13:47;100197.56;;;13.35;89.63
70544;BME280;58097;48.364;-1.224;2023-05-14T07:16:12;100189.25;;;13.59;90.28
70544;BME280;58097;48.364;-1.224;2023-05-14T07:18:38;100198.06;;;13.87;90.45
70544;BME280;58097;48.364;-1.224;2023-05-14T07:21:04;100189.88;;;14.02;89.58
70544;BME280;58097;48.364;-1.224;2023-05-14T07:23:34;100190.38;;;14.05;88.93
70544;BME280;58097;48.364;-1.224;2023-05-14T07:26:01;100196.13;;;14.04;87.99
70544;BME280;58097;48.364;-1.224;2023-05-14T07:28:27;100198.19;;;14.10;88.31
70544;BME280;58097;48.364;-1.224;2023-05-14T07:30:52;100187.38;;;14.31;89.06
70544;BME280;58097;48.364;-1.224;2023-05-14T07:33:18;100195.00;;;14.45;88.86
70544;BME280;58097;48.364;-1.224;2023-05-14T07:35:43;100201.59;;;14.52;87.97
70544;BME280;58097;48.364;-1.224;2023-05-14T07:38:09;100203.16;;;14.39;86.97
70544;BME280;58097;48.364;-1.224;2023-05-14T07:40:34;100204.06;;;14.31;87.28
70544;BME280;58097;48.364;-1.224;2023-05-14T07:42:59;100205.09;;;14.30;87.34
70544;BME280;58097;48.364;-1.224;2023-05-14T07:45:25;100200.59;;;14.29;87.41
70544;BME280;58097;48.364;-1.224;2023-05-14T07:47:50;100205.59;;;14.34;87.72
70544;BME280;58097;48.364;-1.224;2023-05-14T07:50:17;100206.66;;;14.33;87.49
70544;BME280;58097;48.364;-1.224;2023-05-14T07:52:43;100206.47;;;14.34;87.68
70544;BME280;58097;48.364;-1.224;2023-05-14T07:55:09;100203.19;;;14.31;86.82
70544;BME280;58097;48.364;-1.224;2023-05-14T07:57:34;100207.88;;;14.30;87.39
70544;BME280;58097;48.364;-1.224;2023-05-14T08:00:00;100214.13;;;14.32;87.60
70544;BME280;58097;48.364;-1.224;2023-05-14T08:02:25;100204.91;;;14.32;87.46
70544;BME280;58097;48.364;-1.224;2023-05-14T08:04:50;100205.97;;;14.31;87.46
70544;BME280;58097;48.364;-1.224;2023-05-14T08:07:16;100210.31;;;14.33;87.84
70544;BME280;58097;48.364;-1.224;2023-05-14T08:09:41;100210.13;;;14.35;87.94
70544;BME280;58097;48.364;-1.224;2023-05-14T08:12:07;100212.53;;;14.38;88.19
70544;BME280;58097;48.364;-1.224;2023-05-14T08:14:32;100205.06;;;14.38;87.82
70544;BME280;58097;48.364;-1.224;2023-05-14T08:16:58;100214.44;;;14.53;88.80
70544;BME280;58097;48.364;-1.224;2023-05-14T08:19:23;100205.47;;;14.82;89.45
70544;BME280;58097;48.364;-1.224;2023-05-14T08:21:49;100215.94;;;15.03;88.97
70544;BME280;58097;48.364;-1.224;2023-05-14T08:24:15;100211.69;;;15.15;88.01
70544;BME280;58097;48.364;-1.224;2023-05-14T08:26:41;100209.91;;;15.23;87.29
70544;BME280;58097;48.364;-1.224;2023-05-14T08:29:07;100223.47;;;15.26;86.87
70544;BME280;58097;48.364;-1.224;2023-05-14T08:31:32;100213.56;;;15.23;86.98
70544;BME280;58097;48.364;-1.224;2023-05-14T08:33:57;100209.78;;;15.16;85.77
70544;BME280;58097;48.364;-1.224;2023-05-14T08:36:23;100204.09;;;15.09;85.06
70544;BME280;58097;48.364;-1.224;2023-05-14T08:38:48;100209.00;;;14.99;84.42
70544;BME280;58097;48.364;-1.224;2023-05-14T08:41:14;100211.78;;;14.99;85.04
70544;BME280;58097;48.364;-1.224;2023-05-14T08:46:23;100196.31;;;14.97;85.78
70544;BME280;58097;48.364;-1.224;2023-05-14T08:48:55;100197.84;;;15.07;85.99
70544;BME280;58097;48.364;-1.224;2023-05-14T08:51:25;100208.34;;;15.20;86.13
70544;BME280;58097;48.364;-1.224;2023-05-14T08:53:52;100198.38;;;15.34;86.94
70544;BME280;58097;48.364;-1.224;2023-05-14T08:56:17;100198.53;;;15.55;85.79
70544;BME280;58097;48.364;-1.224;2023-05-14T08:58:43;100201.50;;;15.62;85.24
70544;BME280;58097;48.364;-1.224;2023-05-14T09:01:10;100200.47;;;15.77;85.61
70544;BME280;58097;48.364;-1.224;2023-05-14T09:03:35;100197.72;;;15.92;84.35
70544;BME280;58097;48.364;-1.224;2023-05-14T09:06:03;100196.78;;;16.15;83.50
70544;BME280;58097;48.364;-1.224;2023-05-14T09:08:28;100197.47;;;16.31;83.60
70544;BME280;58097;48.364;-1.224;2023-05-14T09:10:54;100201.34;;;16.60;84.14
70544;BME280;58097;48.364;-1.224;2023-05-14T09:13:19;100204.13;;;16.89;84.70
70544;BME280;58097;48.364;-1.224;2023-05-14T09:15:45;100203.53;;;16.94;81.52
70544;BME280;58097;48.364;-1.224;2023-05-14T09:18:12;100202.66;;;16.93;81.49
70544;BME280;58097;48.364;-1.224;2023-05-14T09:20:37;100202.34;;;17.03;81.87
70544;BME280;58097;48.364;-1.224;2023-05-14T09:23:03;100199.66;;;17.10;80.52
70544;BME280;58097;48.364;-1.224;2023-05-14T09:25:31;100202.25;;;17.11;79.89
70544;BME280;58097;48.364;-1.224;2023-05-14T09:27:57;100205.31;;;17.16;78.74
70544;BME280;58097;48.364;-1.224;2023-05-14T09:30:23;100197.56;;;16.97;77.13
70544;BME280;58097;48.364;-1.224;2023-05-14T09:32:52;100191.84;;;17.05;79.82
70544;BME280;58097;48.364;-1.224;2023-05-14T09:35:20;100200.88;;;17.22;79.03
70544;BME280;58097;48.364;-1.224;2023-05-14T09:37:51;100199.28;;;17.34;80.11
70544;BME280;58097;48.364;-1.224;2023-05-14T09:40:18;100197.63;;;17.40;79.16
70544;BME280;58097;48.364;-1.224;2023-05-14T09:42:44;100194.66;;;17.41;77.68
70544;BME280;58097;48.364;-1.224;2023-05-14T09:45:10;100197.69;;;17.46;78.22
70544;BME280;58097;48.364;-1.224;2023-05-14T09:47:37;100195.56;;;17.48;78.96
70544;BME280;58097;48.364;-1.224;2023-05-14T09:50:03;100201.41;;;17.32;75.83
70544;BME280;58097;48.364;-1.224;2023-05-14T09:52:28;100203.94;;;17.27;78.47
70544;BME280;58097;48.364;-1.224;2023-05-14T09:54:54;100198.09;;;17.43;79.30
70544;BME280;58097;48.364;-1.224;2023-05-14T09:57:20;100195.69;;;17.61;77.93
70544;BME280;58097;48.364;-1.224;2023-05-14T09:59:46;100205.53;;;17.72;76.41
70544;BME280;58097;48.364;-1.224;2023-05-14T10:02:25;100195.84;;;17.96;77.48
70544;BME280;58097;48.364;-1.224;2023-05-14T10:04:52;100192.00;;;17.97;73.45
70544;BME280;58097;48.364;-1.224;2023-05-14T10:07:21;100190.81;;;18.13;76.92
70544;BME280;58097;48.364;-1.224;2023-05-14T10:09:47;100187.75;;;18.36;77.17
70544;BME280;58097;48.364;-1.224;2023-05-14T10:12:15;100193.28;;;18.57;78.83
70544;BME280;58097;48.364;-1.224;2023-05-14T10:14:46;100191.00;;;18.74;77.74
70544;BME280;58097;48.364;-1.224;2023-05-14T10:17:20;100196.59;;;18.74;76.23
70544;BME280;58097;48.364;-1.224;2023-05-14T10:19:52;100202.41;;;18.72;74.92
70544;BME280;58097;48.364;-1.224;2023-05-14T10:22:26;100201.75;;;18.70;75.53
70544;BME280;58097;48.364;-1.224;2023-05-14T10:24:55;100193.44;;;18.83;75.46
70544;BME280;58097;48.364;-1.224;2023-05-14T10:27:21;100194.22;;;18.71;74.68
70544;BME280;58097;48.364;-1.224;2023-05-14T10:29:54;100194.66;;;18.74;73.78
70544;BME280;58097;48.364;-1.224;2023-05-14T10:32:21;100190.88;;;18.88;75.95
70544;BME280;58097;48.364;-1.224;2023-05-14T10:34:47;100191.56;;;19.04;75.55
70544;BME280;58097;48.364;-1.224;2023-05-14T10:40:04;100184.75;;;19.19;73.53
70544;BME280;58097;48.364;-1.224;2023-05-14T10:42:34;100180.81;;;19.07;73.40
70544;BME280;58097;48.364;-1.224;2023-05-14T10:45:05;100181.22;;;18.98;70.79
70544;BME280;58097;48.364;-1.224;2023-05-14T10:47:36;100178.69;;;19.09;75.15
70544;BME280;58097;48.364;-1.224;2023-05-14T10:50:07;100181.72;;;19.14;75.18
70544;BME280;58097;48.364;-1.224;2023-05-14T10:52:33;100177.22;;;19.20;74.88
70544;BME280;58097;48.364;-1.224;2023-05-14T10:55:05;100175.25;;;19.14;72.28
70544;BME280;58097;48.364;-1.224;2023-05-14T10:57:36;100172.88;;;19.11;71.95
70544;BME280;58097;48.364;-1.224;2023-05-14T11:00:02;100171.38;;;19.15;72.53
70544;BME280;58097;48.364;-1.224;2023-05-14T11:02:33;100172.41;;;19.01;72.29
70544;BME280;58097;48.364;-1.224;2023-05-14T11:05:00;100169.22;;;19.10;73.07
70544;BME280;58097;48.364;-1.224;2023-05-14T11:07:41;100165.13;;;19.13;71.72
70544;BME280;58097;48.364;-1.224;2023-05-14T11:10:07;100169.88;;;19.26;73.46
70544;BME280;58097;48.364;-1.224;2023-05-14T11:12:35;100160.84;;;19.30;71.90
70544;BME280;58097;48.364;-1.224;2023-05-14T11:15:03;100156.16;;;19.44;74.56
70544;BME280;58097;48.364;-1.224;2023-05-14T11:17:30;100163.25;;;19.46;72.59
70544;BME280;58097;48.364;-1.224;2023-05-14T11:19:56;100159.22;;;19.56;72.05
70544;BME280;58097;48.364;-1.224;2023-05-14T11:22:22;100163.31;;;19.60;72.39
70544;BME280;58097;48.364;-1.224;2023-05-14T11:24:47;100160.53;;;19.66;72.62
70544;BME280;58097;48.364;-1.224;2023-05-14T11:27:13;100157.06;;;19.71;72.10
70544;BME280;58097;48.364;-1.224;2023-05-14T11:29:45;100162.47;;;19.79;72.28
70544;BME280;58097;48.364;-1.224;2023-05-14T11:32:12;100165.69;;;19.89;71.87
70544;BME280;58097;48.364;-1.224;2023-05-14T11:34:38;100157.50;;;19.88;70.16
70544;BME280;58097;48.364;-1.224;2023-05-14T11:37:07;100165.91;;;19.88;71.81
70544;BME280;58097;48.364;-1.224;2023-05-14T11:39:34;100166.13;;;19.93;71.35
70544;BME280;58097;48.364;-1.224;2023-05-14T11:42:04;100151.88;;;19.61;67.60
70544;BME280;58097;48.364;-1.224;2023-05-14T11:44:30;100160.69;;;19.52;69.88
70544;BME280;58097;48.364;-1.224;2023-05-14T11:46:56;100154.25;;;19.58;70.35
70544;BME280;58097;48.364;-1.224;2023-05-14T11:49:23;100156.63;;;19.61;71.19
70544;BME280;58097;48.364;-1.224;2023-05-14T11:51:49;100154.50;;;19.76;71.48
70544;BME280;58097;48.364;-1.224;2023-05-14T11:54:15;100155.75;;;19.60;69.06
70544;BME280;58097;48.364;-1.224;2023-05-14T11:56:40;100165.88;;;19.55;70.26
70544;BME280;58097;48.364;-1.224;2023-05-14T11:59:05;100163.47;;;19.38;69.59
70544;BME280;58097;48.364;-1.224;2023-05-14T12:01:38;100161.25;;;19.21;68.95
70544;BME280;58097;48.364;-1.224;2023-05-14T12:04:03;100173.13;;;19.29;70.73
70544;BME280;58097;48.364;-1.224;2023-05-14T12:06:30;100163.22;;;19.33;71.02
70544;BME280;58097;48.364;-1.224;2023-05-14T12:08:58;100163.69;;;19.43;71.13
70544;BME280;58097;48.364;-1.224;2023-05-14T12:11:29;100154.84;;;19.46;70.50
70544;BME280;58097;48.364;-1.224;2023-05-14T12:13:55;100161.94;;;19.36;70.69
70544;BME280;58097;48.364;-1.224;2023-05-14T12:16:21;100158.72;;;19.45;70.42
70544;BME280;58097;48.364;-1.224;2023-05-14T12:18:46;100161.53;;;19.52;71.18
70544;BME280;58097;48.364;-1.224;2023-05-14T12:21:12;100153.78;;;19.47;70.07
70544;BME280;58097;48.364;-1.224;2023-05-14T12:23:37;100161.16;;;19.55;70.58
70544;BME280;58097;48.364;-1.224;2023-05-14T12:26:05;100152.44;;;19.30;68.84
70544;BME280;58097;48.364;-1.224;2023-05-14T12:28:31;100157.88;;;19.38;70.65
70544;BME280;58097;48.364;-1.224;2023-05-14T12:30:57;100160.28;;;19.55;71.17
70544;BME280;58097;48.364;-1.224;2023-05-14T12:33:23;100152.75;;;19.62;69.98
70544;BME280;58097;48.364;-1.224;2023-05-14T12:35:50;100160.69;;;19.52;68.76
70544;BME280;58097;48.364;-1.224;2023-05-14T12:38:18;100153.78;;;19.41;68.91
70544;BME280;58097;48.364;-1.224;2023-05-14T12:40:43;100155.06;;;19.45;70.44
70544;BME280;58097;48.364;-1.224;2023-05-14T12:43:09;100163.22;;;19.27;70.28
70544;BME280;58097;48.364;-1.224;2023-05-14T12:45:34;100160.59;;;19.12;68.91